Time;durP1;ratioP1;P1;durP2;ratioP2;P2;SDS_P1;SDS_P2;PMS_P1;PMS_P2;Temp;Humidity;BMP_temperature;BMP_pressure;BME280_temperature;BME280_humidity;BME280_pressure;Samples;Min_cycle;Max_cycle;Signal;HPM_P1;HPM_P2
2023/05/07 00:00:33;;;;;;;0.10;0.10;;;13.10;99.90;;;15.71;100.00;100170.91;4985100;28;20236;-79
2023/05/07 00:03:01;;;;;;;0.10;0.10;;;;;;;15.58;100.00;100163.09;4984865;28;20392;-79
2023/05/07 00:05:28;;;;;;;0.20;0.20;;;;;;;15.58;100.00;100165.75;4984936;28;20236;-79
2023/05/07 00:07:56;;;;;;;0.10;0.10;;;15.30;99.90;;;15.59;100.00;100161.28;4983318;28;20243;-80
2023/05/07 00:10:26;;;;;;;0.10;0.10;;;;;;;15.53;100.00;100158.69;4979061;28;20231;-80
2023/05/07 00:12:54;;;;;;;0.10;0.10;;;;;;;15.51;100.00;100166.72;4980908;28;20283;-80
2023/05/07 00:15:21;;;;;;;0.30;0.30;;;;;;;15.51;100.00;100181.81;4984051;28;20235;-79
2023/05/07 00:17:49;;;;;;;0.10;0.10;;;;;;;15.48;100.00;100184.53;4985737;28;20232;-79
2023/05/07 00:20:16;;;;;;;0.45;0.43;;;15.20;99.90;;;15.42;100.00;100187.28;4978982;28;20232;-80
2023/05/07 00:22:43;;;;;;;0.10;0.10;;;;;;;15.42;100.00;100188.16;4969513;28;20310;-80
2023/05/07 00:25:11;;;;;;;0.10;0.10;;;;;;;15.32;100.00;100202.53;4984584;28;20236;-80
2023/05/07 00:27:38;;;;;;;0.20;0.20;;;;;;;15.23;100.00;100202.66;4981244;28;20244;-80
2023/05/07 00:30:06;;;;;;;0.10;0.10;;;15.00;99.90;;;15.23;100.00;100197.31;4982010;28;20263;-80
2023/05/07 00:32:34;;;;;;;0.00;0.00;;;14.90;99.90;;;15.20;100.00;100197.38;4981016;28;20264;-79
2023/05/07 00:35:02;;;;;;;0.10;0.10;;;;;;;15.23;100.00;100206.19;4984797;28;20307;-77
2023/05/07 00:37:29;;;;;;;0.10;0.10;;;;;;;15.21;100.00;100204.47;4984177;28;20234;-77
2023/05/07 00:39:57;;;;;;;1.27;0.50;;;14.90;99.90;;;15.27;100.00;100209.69;4983616;28;20255;-77
2023/05/07 00:42:24;;;;;;;0.00;0.00;;;;;;;15.21;100.00;100208.00;4986921;28;20256;-77
2023/05/07 00:44:52;;;;;;;0.10;0.10;;;;;;;15.21;100.00;100216.00;4985518;28;20641;-78
2023/05/07 00:47:19;;;;;;;0.13;0.13;;;;;;;15.12;100.00;100213.44;4982945;28;20267;-76
2023/05/07 00:49:47;;;;;;;0.50;0.50;;;;;;;15.07;100.00;100209.09;4978227;28;20237;-77
2023/05/07 00:52:17;;;;;;;0.10;0.10;;;14.80;99.90;;;15.01;100.00;100208.25;4983581;28;20330;-77
2023/05/07 00:54:45;;;;;;;0.40;0.40;;;14.70;99.90;;;14.98;100.00;100207.41;4997842;28;20240;-77
2023/05/07 00:57:12;;;;;;;0.10;0.10;;;14.70;99.90;;;14.95;100.00;100216.31;4983923;28;20323;-77
2023/05/07 00:59:40;;;;;;;0.20;0.20;;;14.70;99.90;;;14.99;100.00;100219.84;4986809;28;20267;-77
2023/05/07 01:02:08;;;;;;;0.10;0.10;;;;;;;14.88;100.00;100219.09;4988279;28;20253;-77
2023/05/07 01:04:35;;;;;;;0.10;0.10;;;;;;;14.83;100.00;100224.47;4976953;28;20245;-77
2023/05/07 01:07:05;;;;;;;0.10;0.10;;;14.50;99.90;;;14.81;100.00;100226.25;4984613;28;20232;-77
2023/05/07 01:09:32;;;;;;;0.10;0.10;;;;;;;14.75;100.00;100229.00;4985981;28;20240;-77
2023/05/07 01:12:00;;;;;;;0.10;0.10;;;14.50;99.90;;;14.72;100.00;100237.00;4987527;28;20233;-77
2023/05/07 01:14:27;;;;;;;0.20;0.20;;;;;;;14.60;100.00;100234.50;4982944;28;20248;-77
2023/05/07 01:16:55;;;;;;;0.10;0.10;;;;;;;14.62;100.00;100241.56;4985593;28;20340;-76
2023/05/07 01:19:22;;;;;;;0.10;0.10;;;;;;;14.57;100.00;100250.50;4983195;28;20552;-77
2023/05/07 01:21:54;;;;;;;0.22;0.22;;;14.40;99.90;;;14.59;100.00;100244.25;4985951;28;20247;-76
2023/05/07 01:24:21;;;;;;;0.10;0.10;;;;;;;14.59;100.00;100246.91;4968350;28;20352;-76
2023/05/07 01:26:49;;;;;;;0.10;0.10;;;;;;;14.56;100.00;100240.75;4981357;28;20228;-76
2023/05/07 01:29:16;;;;;;;0.10;0.10;;;;;;;14.59;100.00;100238.03;4983760;28;20248;-77
2023/05/07 01:31:44;;;;;;;0.10;0.10;;;14.30;99.90;;;14.58;100.00;100244.25;4983448;28;20276;-76
2023/05/07 01:34:13;;;;;;;0.20;0.20;;;14.30;99.90;;;14.57;100.00;100251.38;4979524;28;20289;-76
2023/05/07 01:36:40;;;;;;;0.10;0.10;;;;;;;14.51;100.00;100254.09;4978913;28;20232;-76
2023/05/07 01:39:09;;;;;;;0.55;0.55;;;14.20;99.90;;;14.46;100.00;100261.22;4981565;28;20330;-76
2023/05/07 01:41:36;;;;;;;0.10;0.10;;;;;;;14.42;100.00;100264.81;4978009;28;20264;-76
2023/05/07 01:44:04;;;;;;;0.10;0.10;;;;;;;14.40;100.00;100267.47;4982614;28;20327;-76
2023/05/07 01:46:32;;;;;;;0.40;0.40;;;;;;;14.35;100.00;100279.94;4980422;28;20259;-77
2023/05/07 01:49:00;;;;;;;0.10;0.10;;;;;;;14.37;100.00;100285.22;4992968;28;20239;-76
2023/05/07 01:51:27;;;;;;;0.10;0.10;;;;;;;14.28;100.00;100282.63;4984435;28;20260;-76
2023/05/07 01:53:55;;;;;;;0.10;0.10;;;;;;;14.24;100.00;100281.75;4984708;28;20302;-77
2023/05/07 01:56:22;;;;;;;0.10;0.10;;;;;;;14.27;100.00;100294.16;4986046;28;20358;-76
2023/05/07 01:58:51;;;;;;;0.25;0.25;;;14.00;99.90;;;14.24;100.00;100287.09;4981174;28;20310;-77
2023/05/07 02:01:18;;;;;;;0.00;0.00;;;;;;;14.27;100.00;100299.47;4979872;28;20233;-76
2023/05/07 02:03:46;;;;;;;0.10;0.10;;;;;;;14.29;100.00;100301.22;4981704;28;20263;-76
2023/05/07 02:06:13;;;;;;;0.50;0.50;;;;;;;14.26;100.00;100303.03;4979462;28;20254;-76
2023/05/07 02:08:41;;;;;;;0.17;0.17;;;;;;;14.24;100.00;100310.13;4979841;28;20304;-76
2023/05/07 02:11:08;;;;;;;0.10;0.10;;;;;;;14.26;100.00;100321.66;4985958;28;20281;-76
2023/05/07 02:13:36;;;;;;;0.10;0.10;;;;;;;14.16;100.00;100318.19;4984503;28;20243;-77
2023/05/07 02:16:03;;;;;;;0.30;0.30;;;;;;;14.18;100.00;100321.69;4982422;28;20294;-76
2023/05/07 02:18:31;;;;;;;0.10;0.10;;;;;;;14.12;100.00;100328.84;4981563;28;20239;-76
2023/05/07 02:20:59;;;;;;;0.10;0.10;;;;;;;14.10;100.00;100332.41;4978844;28;20229;-76
2023/05/07 02:23:26;;;;;;;0.10;0.10;;;;;;;14.09;100.00;100333.28;4987165;28;20261;-76
2023/05/07 02:25:53;;;;;;;0.10;0.10;;;;;;;14.12;100.00;100343.03;4981517;28;20260;-77
2023/05/07 02:28:24;;;;;;;0.25;0.25;;;;;;;14.03;100.00;100349.28;4993166;28;20362;-77
2023/05/07 02:30:51;;;;;;;0.10;0.10;;;;;;;14.08;100.00;100346.59;4979319;28;20331;-80
2023/05/07 02:33:19;;;;;;;0.00;0.00;;;;;;;14.04;100.00;100352.81;4978456;28;20236;-79
2023/05/07 02:35:46;;;;;;;0.10;0.10;;;;;;;14.07;100.00;100350.16;4978767;28;20237;-80
2023/05/07 02:38:13;;;;;;;0.22;0.22;;;;;;;14.07;100.00;100350.16;4979343;28;20323;-80
2023/05/07 02:40:41;;;;;;;0.10;0.10;;;;;;;14.01;100.00;100344.88;4975833;28;20331;-83
2023/05/07 02:43:08;;;;;;;0.15;0.15;;;;;;;14.01;100.00;100355.50;4972091;28;20306;-82
2023/05/07 02:45:37;;;;;;;0.10;0.10;;;;;;;13.96;100.00;100354.66;4983465;28;20272;-79
2023/05/07 02:48:08;;;;;;;0.10;0.10;;;;;;;13.95;100.00;100363.53;4973509;28;20596;-82
2023/05/07 02:50:35;;;;;;;0.00;0.00;;;;;;;13.89;100.00;100369.75;4977765;28;20319;-80
2023/05/07 02:53:03;;;;;;;0.10;0.10;;;;;;;13.88;100.00;100369.75;4982987;28;20236;-79
2023/05/07 02:55:31;;;;;;;0.10;0.10;;;;;;;13.85;100.00;100372.44;4986714;28;20743;-79
2023/05/07 02:57:58;;;;;;;0.10;0.10;;;;;;;13.81;100.00;100368.91;4979313;28;20235;-80
2023/05/07 03:00:26;;;;;;;0.10;0.10;;;;;;;13.82;100.00;100378.66;4982920;28;20241;-80
2023/05/07 03:02:53;;;;;;;0.08;0.08;;;13.50;99.90;;;13.83;100.00;100382.19;4981050;28;20240;-79
2023/05/07 03:05:20;;;;;;;0.10;0.10;;;;;;;13.84;100.00;100371.56;4979870;28;20237;-80
2023/05/07 03:07:47;;;;;;;0.10;0.10;;;;;;;13.83;100.00;100371.56;4978949;28;20316;-80
2023/05/07 03:10:15;;;;;;;0.30;0.30;;;;;;;13.82;100.00;100380.44;4972948;28;20323;-79
2023/05/07 03:12:43;;;;;;;0.10;0.10;;;;;;;13.76;100.00;100382.22;4974347;28;20319;-79
2023/05/07 03:15:12;;;;;;;0.10;0.10;;;13.50;99.90;;;13.77;100.00;100380.44;4981479;28;20239;-78
2023/05/07 03:17:40;;;;;;;0.10;0.10;;;;;;;13.76;100.00;100381.34;4984721;28;20264;-79
2023/05/07 03:20:09;;;;;;;0.10;0.10;;;13.50;99.90;;;13.74;100.00;100377.81;4980766;28;20584;-79
2023/05/07 03:22:37;;;;;;;0.10;0.10;;;;;;;13.73;100.00;100382.25;5003148;28;20323;-78
2023/05/07 03:25:05;;;;;;;0.10;0.10;;;13.50;99.90;;;13.75;100.00;100390.22;4986519;28;20311;-79
2023/05/07 03:27:33;;;;;;;0.10;0.10;;;;;;;13.73;100.00;100392.00;4986995;28;20307;-79
2023/05/07 03:30:00;;;;;;;0.10;0.10;;;;;;;13.68;100.00;100394.66;4965328;28;20260;-79
2023/05/07 03:32:28;;;;;;;0.10;0.10;;;;;;;13.64;100.00;100394.69;4980386;28;20697;-79
2023/05/07 03:34:55;;;;;;;0.10;0.10;;;;;;;13.63;100.00;100387.59;4983647;28;20264;-79
2023/05/07 03:37:23;;;;;;;0.40;0.40;;;;;;;13.63;100.00;100390.25;4987880;28;20251;-79
2023/05/07 03:39:50;;;;;;;0.80;0.45;;;;;;;13.61;100.00;100392.03;4987827;28;20244;-80
2023/05/07 03:42:17;;;;;;;0.10;0.10;;;;;;;13.54;100.00;100391.19;4986210;28;20315;-80
2023/05/07 03:44:45;;;;;;;0.10;0.10;;;;;;;13.56;100.00;100399.16;4988650;28;20295;-80
2023/05/07 03:47:13;;;;;;;0.10;0.10;;;;;;;13.55;100.00;100400.91;4986951;28;20255;-80
2023/05/07 03:49:40;;;;;;;0.10;0.10;;;;;;;13.57;100.00;100412.44;4986096;28;20240;-79
2023/05/07 03:52:08;;;;;;;0.10;0.10;;;;;;;13.55;100.00;100408.88;4980081;28;20640;-79
2023/05/07 03:54:35;;;;;;;0.10;0.10;;;;;;;13.51;100.00;100407.13;4983435;28;20712;-79
2023/05/07 03:57:02;;;;;;;0.10;0.10;;;;;;;13.51;100.00;100416.88;4988723;28;20322;-79
2023/05/07 03:59:30;;;;;;;0.10;0.10;;;;;;;13.49;100.00;100422.19;4984522;28;20311;-80
2023/05/07 04:01:57;;;;;;;0.10;0.10;;;;;;;13.51;100.00;100422.19;4987413;28;20232;-81
2023/05/07 04:04:25;;;;;;;0.10;0.10;;;;;;;13.54;100.00;100425.72;4982426;28;20228;-79
2023/05/07 04:06:52;;;;;;;0.10;0.10;;;;;;;13.54;100.00;100424.84;4979578;28;20255;-80
2023/05/07 04:09:20;;;;;;;0.20;0.20;;;;;;;13.49;100.00;100430.16;4982413;28;20251;-80
2023/05/07 04:11:47;;;;;;;0.10;0.10;;;;;;;13.42;100.00;100441.69;4978170;28;20581;-81
2023/05/07 04:14:15;;;;;;;0.10;0.10;;;;;;;13.33;100.00;100444.38;4981279;28;20328;-79
2023/05/07 04:16:42;;;;;;;0.10;0.10;;;;;;;13.32;100.00;100450.56;4981509;28;20637;-80
2023/05/07 04:19:09;;;;;;;0.10;0.10;;;;;;;13.34;100.00;100451.44;4984193;28;20227;-80
2023/05/07 04:21:37;;;;;;;0.10;0.10;;;;;;;13.32;100.00;100463.84;4981334;28;20351;-79
2023/05/07 04:24:04;;;;;;;0.13;0.13;;;;;;;13.37;100.00;100465.63;4981510;28;20260;-80
2023/05/07 04:26:32;;;;;;;0.40;0.40;;;;;;;13.35;100.00;100474.47;4984096;28;20287;-80
2023/05/07 04:29:00;;;;;;;0.10;0.10;;;;;;;13.32;100.00;100477.13;4985796;28;20228;-80
2023/05/07 04:31:27;;;;;;;0.10;0.10;;;;;;;13.39;100.00;100481.56;4989182;28;20297;-80
2023/05/07 04:33:55;;;;;;;0.22;0.22;;;;;;;13.32;100.00;100486.00;4991774;28;20235;-80
2023/05/07 04:36:22;;;;;;;0.10;0.10;;;;;;;13.27;100.00;100478.91;4988586;28;20233;-80
2023/05/07 04:38:50;;;;;;;0.20;0.20;;;;;;;13.31;100.00;100489.53;4987599;28;20236;-80
2023/05/07 04:41:17;;;;;;;0.10;0.10;;;;;;;13.37;100.00;100491.28;4990829;28;20264;-80
2023/05/07 04:43:45;;;;;;;0.10;0.10;;;;;;;13.42;100.00;100502.78;4982773;28;20788;-79
2023/05/07 04:46:12;;;;;;;0.10;0.10;;;;;;;13.44;100.00;100509.88;4986155;28;20316;-80
2023/05/07 04:48:40;;;;;;;0.10;0.10;;;;;;;13.50;100.00;100502.78;4984878;28;20241;-79
2023/05/07 04:51:07;;;;;;;0.10;0.10;;;;;;;13.56;100.00;100501.00;4987056;28;20244;-80
2023/05/07 04:53:35;;;;;;;0.57;0.57;;;;;;;13.58;100.00;100514.28;4988177;28;20233;-80
2023/05/07 04:56:02;;;;;;;0.10;0.10;;;;;;;13.64;100.00;100503.63;4991015;28;20736;-79
2023/05/07 04:58:31;;;;;;;0.38;0.38;;;;;;;13.70;100.00;100515.13;4984555;28;20228;-80
2023/05/07 05:01:00;;;;;;;0.10;0.10;;;13.50;99.90;;;13.73;100.00;100511.59;4990300;28;20334;-80
2023/05/07 05:03:28;;;;;;;0.20;0.20;;;;;;;13.73;100.00;100530.19;4990465;28;20237;-79
2023/05/07 05:05:56;;;;;;;0.10;0.10;;;;;;;13.76;100.00;100523.09;4987508;28;20240;-80
2023/05/07 05:08:24;;;;;;;0.10;0.10;;;;;;;13.84;100.00;100528.38;4987417;28;20279;-79
2023/05/07 05:10:51;;;;;;;0.10;0.10;;;;;;;13.84;100.00;100528.38;4985239;28;20296;-79
2023/05/07 05:13:19;;;;;;;0.10;0.10;;;;;;;13.92;100.00;100523.94;4986710;28;20248;-79
2023/05/07 05:15:46;;;;;;;0.55;0.55;;;;;;;13.96;100.00;100516.84;4986775;28;20237;-79
2023/05/07 05:18:14;;;;;;;0.10;0.10;;;;;;;14.03;100.00;100522.13;4985250;28;20232;-80
2023/05/07 05:20:41;;;;;;;0.10;0.10;;;;;;;14.09;100.00;100511.47;4985148;28;20229;-79
2023/05/07 05:23:09;;;;;;;0.13;0.13;;;;;;;14.17;100.00;100510.53;4987822;28;20236;-81
2023/05/07 05:25:37;;;;;;;0.20;0.20;;;;;;;14.24;100.00;100509.63;4986973;28;20233;-81
2023/05/07 05:28:04;;;;;;;0.10;0.10;;;;;;;14.30;100.00;100512.25;4968668;28;20241;-80
2023/05/07 05:30:35;;;;;;;0.17;0.17;;;;;;;14.35;100.00;100511.38;4988182;28;20236;-83
2023/05/07 05:33:02;;;;;;;0.20;0.20;;;;;;;14.42;100.00;100509.59;4988758;28;20251;-83
2023/05/07 05:35:30;;;;;;;0.10;0.10;;;14.20;99.90;;;14.47;100.00;100509.56;4982562;28;20251;-81
2023/05/07 05:37:58;;;;;;;0.10;0.10;;;;;;;14.49;100.00;100514.00;4987599;28;20294;-80
2023/05/07 05:40:25;;;;;;;0.10;0.10;;;;;;;14.53;100.00;100504.22;4983810;28;20294;-77
2023/05/07 05:42:53;;;;;;;0.10;0.10;;;;;;;14.58;100.00;100497.09;4982470;28;20295;-76
2023/05/07 05:45:20;;;;;;;0.10;0.10;;;;;;;14.62;100.00;100493.50;4983596;28;20229;-77
2023/05/07 05:47:48;;;;;;;0.20;0.20;;;;;;;14.69;100.00;100495.25;4970377;28;20267;-78
2023/05/07 05:50:15;;;;;;;0.10;0.10;;;;;;;14.73;100.00;100500.53;4986788;28;20235;-78
2023/05/07 05:52:43;;;;;;;0.10;0.10;;;;;;;14.82;100.00;100501.34;4985738;28;20244;-78
2023/05/07 05:55:10;;;;;;;0.10;0.10;;;14.60;99.90;;;14.86;100.00;100504.00;4988419;28;20315;-78
2023/05/07 05:57:37;;;;;;;0.17;0.17;;;14.60;99.90;;;14.92;100.00;100503.06;4984585;28;20311;-77
2023/05/07 06:00:05;;;;;;;0.10;0.10;;;14.60;99.90;;;14.93;100.00;100492.41;5001118;23;20233;-78
2023/05/07 06:02:32;;;;;;;0.50;0.50;;;;;;;15.05;100.00;100489.63;4937126;28;20317;-78
2023/05/07 06:05:00;;;;;;;0.10;0.10;;;;;;;15.16;100.00;100486.88;4947846;28;20261;-78
2023/05/07 06:08:32;;;;;;;0.10;0.10;;;14.90;99.90;;;15.25;100.00;100507.22;4945242;28;20311;-81
2023/05/07 06:11:03;;;;;;;0.20;0.20;;;15.00;99.90;;;15.40;100.00;100520.41;4914174;29;20310;-79
2023/05/07 06:13:33;;;;;;;0.10;0.10;;;;;;;15.46;100.00;100514.13;4916218;29;20238;-79
2023/05/07 06:16:00;;;;;;;0.10;0.10;;;;;;;15.53;100.00;100515.84;4932140;28;20233;-79
2023/05/07 06:18:27;;;;;;;0.10;0.10;;;;;;;15.51;100.00;100510.53;4928521;28;20284;-80
2023/05/07 06:20:55;;;;;;;0.10;0.10;;;;;;;15.60;100.00;100502.50;4931692;28;20265;-79
2023/05/07 06:23:22;;;;;;;0.10;0.10;;;;;;;15.76;100.00;100505.88;4931025;28;20317;-79
2023/05/07 06:25:50;;;;;;;0.10;0.10;;;15.60;99.90;;;15.91;100.00;100502.16;4924795;29;20243;-80
2023/05/07 06:28:17;;;;;;;0.32;0.32;;;;;;;16.10;100.00;100498.38;4935385;29;20226;-79
2023/05/07 06:30:45;;;;;;;0.00;0.00;;;;;;;16.20;100.00;100489.34;4929668;28;20237;-78
2023/05/07 06:33:12;;;;;;;0.17;0.17;;;;;;;16.28;100.00;100482.13;4932063;28;20311;-77
2023/05/07 06:35:40;;;;;;;0.10;0.10;;;;;;;16.25;100.00;100451.94;4933148;28;20234;-79
2023/05/07 06:38:07;;;;;;;0.00;0.00;;;;;;;16.41;100.00;100441.91;4924093;29;20265;-78
2023/05/07 06:40:35;;;;;;;0.20;0.20;;;;;;;16.52;100.00;100437.28;4938629;28;20629;-78
2023/05/07 06:43:02;;;;;;;0.10;0.10;;;;;;;16.59;100.00;100423.84;4930302;29;20230;-79
2023/05/07 06:45:29;;;;;;;1.63;0.35;;;;;;;16.74;100.00;100435.22;4935873;29;20238;-79
2023/05/07 06:47:57;;;;;;;0.10;0.10;;;;;;;16.73;100.00;100423.63;4926386;28;20328;-78
2023/05/07 06:50:24;;;;;;;0.00;0.00;;;;;;;16.69;100.00;100405.91;4929044;28;20290;-78
2023/05/07 06:52:52;;;;;;;0.10;0.10;;;;;;;16.62;100.00;100389.06;4937243;28;20607;-77
2023/05/07 06:55:19;;;;;;;0.22;0.22;;;;;;;16.62;100.00;100380.19;4929990;28;20260;-78
2023/05/07 06:57:47;;;;;;;0.10;0.10;;;;;;;16.76;100.00;100391.53;4930627;28;20297;-78
2023/05/07 07:00:15;;;;;;;0.00;0.00;;;16.60;99.90;;;16.90;100.00;100394.91;4914069;29;20246;-77
2023/05/07 07:02:43;;;;;;;0.10;0.10;;;;;;;16.98;100.00;100373.38;4933850;28;20257;-79
2023/05/07 07:05:11;;;;;;;0.00;0.00;;;;;;;17.20;100.00;100358.72;4928216;28;20234;-79
2023/05/07 07:07:38;;;;;;;0.00;0.00;;;;;;;17.20;100.00;100341.81;4925941;29;20266;-79
2023/05/07 07:10:06;;;;;;;0.30;0.30;;;17.20;99.90;;;17.56;100.00;100350.88;4906739;28;20242;-78
2023/05/07 07:12:34;;;;;;;0.00;0.00;;;;;;;17.38;100.00;100329.88;4930818;28;20254;-79
2023/05/07 07:15:02;;;;;;;0.00;0.00;;;;;;;17.68;100.00;100337.28;4928646;28;20242;-78
2023/05/07 07:17:30;;;;;;;0.10;0.10;;;;;;;17.71;100.00;100325.63;4923021;29;20231;-78
2023/05/07 07:19:57;;;;;;;0.00;0.00;;;17.30;99.90;;;17.53;100.00;100305.47;4931180;29;20234;-78
2023/05/07 07:22:24;;;;;;;0.00;0.00;;;;;;;17.72;100.00;100322.03;4913093;29;20246;-78
2023/05/07 07:24:51;;;;;;;0.10;0.10;;;17.60;99.90;;;17.87;100.00;100327.03;4913590;29;20325;-77
2023/05/07 07:27:19;;;;;;;0.10;0.10;;;;;;;17.79;100.00;100308.50;4934058;29;20292;-78
2023/05/07 07:29:46;;;;;;;0.10;0.10;;;;;;;17.99;100.00;100325.88;4920048;28;20269;-77
2023/05/07 07:32:14;;;;;;;0.10;0.10;;;;;;;17.93;100.00;100318.88;4930142;29;20242;-78
2023/05/07 07:34:43;;;;;;;0.10;0.10;;;;;;;17.93;100.00;100310.84;4946282;28;20242;-78
2023/05/07 07:37:10;;;;;;;0.00;0.00;;;;;;;18.09;100.00;100331.00;4928799;28;20269;-79
2023/05/07 07:39:38;;;;;;;0.10;0.10;;;;;;;18.16;100.00;100316.53;4926887;28;20829;-79
2023/05/07 07:42:05;;;;;;;0.30;0.30;;;;;;;18.46;100.00;100322.97;4930415;28;20273;-79
2023/05/07 07:44:33;;;;;;;0.20;0.20;;;;;;;18.33;100.00;100281.38;4927012;29;20231;-79
2023/05/07 07:47:00;;;;;;;0.10;0.10;;;;;;;18.54;100.00;100282.63;4931778;28;20330;-78
2023/05/07 07:49:28;;;;;;;0.10;0.10;;;;;;;18.88;100.00;100277.28;4911629;29;20253;-79
2023/05/07 07:51:56;;;;;;;0.00;0.00;;;;;;;18.94;100.00;100270.88;4929310;28;20243;-79
2023/05/07 07:54:23;;;;;;;0.05;0.05;;;;;;;18.97;100.00;100252.91;4909930;29;20246;-78
2023/05/07 07:56:51;;;;;;;0.10;0.10;;;;;;;19.05;100.00;100245.53;4928862;28;20281;-81
2023/05/07 07:59:20;;;;;;;0.10;0.10;;;;;;;18.94;100.00;100228.00;4924244;28;20255;-81
2023/05/07 08:01:49;;;;;;;0.10;0.10;;;18.50;99.90;;;18.82;100.00;100227.41;4917490;29;20234;-80
2023/05/07 08:04:20;;;;;;;0.00;0.00;;;;;;;19.11;100.00;100247.16;4925676;28;20233;-80
2023/05/07 08:06:48;;;;;;;0.00;0.00;;;;;;;19.13;100.00;100200.59;4927746;28;20230;-80
2023/05/07 08:09:19;;;;;;;0.05;0.05;;;;;;;19.07;100.00;100154.34;4909650;29;20676;-82
2023/05/07 08:11:46;;;;;;;0.00;0.00;;;;;;;19.16;100.00;100146.91;4928005;28;20230;-81
2023/05/07 08:14:15;;;;;;;0.10;0.10;;;;;;;19.29;100.00;100173.34;4928548;28;20340;-83
2023/05/07 08:16:43;;;;;;;0.00;0.00;;;;;;;19.47;100.00;100181.69;4911382;29;20242;-82
2023/05/07 08:19:10;;;;;;;0.00;0.00;;;;;;;19.47;100.00;100151.31;4922385;29;20269;-83
2023/05/07 08:21:44;;;;;;;0.00;0.00;;;19.10;99.90;;;19.40;100.00;100112.19;4907745;29;20230;-77
2023/05/07 08:24:12;;;;;;;0.20;0.20;;;;;;;19.57;100.00;100152.84;4901193;29;20238;-79
2023/05/07 08:26:42;;;;;;;0.00;0.00;;;19.00;99.90;;;19.19;100.00;100141.44;4929482;29;20234;-78
2023/05/07 08:29:10;;;;;;;0.10;0.10;;;;;;;19.54;100.00;100141.31;4921711;29;20238;-78
2023/05/07 08:31:39;;;;;;;0.10;0.10;;;;;;;19.79;100.00;100158.38;4931054;28;20278;-80
2023/05/07 08:34:07;;;;;;;0.10;0.10;;;;;;;19.63;100.00;100120.44;4911862;29;20824;-79
2023/05/07 08:36:36;;;;;;;0.00;0.00;;;;;;;19.15;100.00;100058.50;4929622;28;20242;-78
2023/05/07 08:39:05;;;;;;;0.20;0.20;;;;;;;19.88;100.00;100114.25;4944547;28;20310;-78
2023/05/07 08:41:33;;;;;;;0.10;0.10;;;;;;;20.19;100.00;100122.13;4933650;28;20254;-80
2023/05/07 08:44:04;;;;;;;0.13;0.13;;;19.70;99.90;;;19.91;100.00;100079.25;4943757;28;20246;-78
2023/05/07 08:46:35;;;;;;;0.20;0.20;;;19.60;99.90;;;19.73;100.00;100076.28;4910989;29;20246;-77
2023/05/07 08:49:03;;;;;;;0.10;0.10;;;;;;;19.62;100.00;100062.34;4929833;28;20749;-78
2023/05/07 08:51:31;;;;;;;0.10;0.10;;;;;;;19.36;100.00;100030.97;4908637;29;20321;-79
2023/05/07 08:54:01;;;;;;;0.00;0.00;;;19.50;99.90;;;19.81;100.00;100084.06;4919817;28;20238;-81
2023/05/07 08:56:29;;;;;;;0.00;0.00;;;;;;;19.88;100.00;100072.19;4929947;28;20230;-83
2023/05/07 08:59:03;;;;;;;0.00;0.00;;;19.60;99.90;;;19.86;100.00;100057.06;4959229;23;20394;-79
2023/05/07 09:01:31;;;;;;;0.00;0.00;;;19.50;99.90;;;19.91;100.00;100058.66;4984854;28;20235;-80
2023/05/07 09:03:59;;;;;;;0.10;0.10;;;;;;;20.09;100.00;100023.13;4970378;28;20252;-79
2023/05/07 09:06:28;;;;;;;0.00;0.00;;;;;;;19.83;100.00;99980.25;4986474;28;20236;-78
2023/05/07 09:08:56;;;;;;;0.00;0.00;;;20.00;99.90;;;20.28;100.00;100019.75;4967359;28;20233;-78
2023/05/07 09:11:24;;;;;;;0.00;0.00;;;20.00;99.90;;;20.13;100.00;99944.22;4985738;28;20228;-79
2023/05/07 09:13:57;;;;;;;0.00;0.00;;;20.00;99.90;;;20.09;100.00;99901.44;4978014;28;20232;-78
2023/05/07 09:16:26;;;;;;;0.10;0.10;;;19.70;99.90;;;20.02;100.00;99892.75;4984510;28;20231;-77
2023/05/07 09:18:54;;;;;;;0.00;0.00;;;20.10;99.90;;;20.42;100.00;99936.88;4982080;28;20259;-77
2023/05/07 09:21:22;;;;;;;0.00;0.00;;;;;;;20.36;100.00;99920.97;4985520;28;20231;-77
2023/05/07 09:23:55;;;;;;;0.00;0.00;;;20.60;99.90;;;20.88;100.00;99968.19;4986843;28;20232;-79
2023/05/07 09:26:24;;;;;;;0.00;0.00;;;21.30;99.90;;;21.55;100.00;99983.34;4970939;28;20267;-80
2023/05/07 09:28:54;;;;;;;0.00;0.00;;;21.20;99.90;;;21.47;100.00;99939.75;4986810;28;20251;-78
2023/05/07 09:31:23;;;;;;;0.05;0.05;;;;;;;21.48;100.00;99876.94;5003944;28;20255;-77
2023/05/07 09:33:52;;;;;;;0.20;0.20;;;;;;;21.38;100.00;99861.22;4988726;28;20375;-79
2023/05/07 09:36:19;;;;;;;0.20;0.20;;;;;;;21.27;100.00;99836.63;4990331;28;20240;-80
2023/05/07 09:38:47;;;;;;;0.00;0.00;;;;;;;21.43;100.00;99831.41;4989889;28;20717;-80
2023/05/07 09:41:15;;;;;;;0.00;0.00;;;;;;;21.36;100.00;99808.44;4985518;28;20235;-79
2023/05/07 09:43:42;;;;;;;0.00;0.00;;;;;;;21.65;100.00;99782.88;4988323;28;20235;-79
2023/05/07 09:46:15;;;;;;;0.10;0.10;;;21.70;99.90;;;22.13;100.00;99812.03;5008611;28;20236;-80
2023/05/07 09:48:44;;;;;;;0.00;0.00;;;21.60;99.90;;;21.69;100.00;99720.78;4987407;28;20412;-79
2023/05/07 09:51:39;;;;;;;0.00;0.00;;;21.60;99.90;;;21.94;100.00;99752.75;4991152;28;20307;-82
2023/05/07 09:54:07;;;;;;;0.22;0.22;;;22.10;99.90;;;22.38;100.00;99783.91;5010687;28;20289;-83
2023/05/07 09:56:35;;;;;;;0.45;0.20;;;;;;;22.59;100.00;99761.28;4995857;28;20314;-82
2023/05/07 09:59:03;;;;;;;0.28;0.20;;;22.40;99.90;;;22.60;100.00;99725.28;4991158;23;20255;-81
2023/05/07 10:01:31;;;;;;;1.00;0.55;;;22.50;99.90;;;22.58;100.00;99670.59;4968753;28;20236;-81
2023/05/07 10:04:03;;;;;;;0.00;0.00;;;22.10;99.90;;;22.51;100.00;99610.78;4955178;28;20237;-81
2023/05/07 10:06:30;;;;;;;0.00;0.00;;;;;;;23.06;100.00;99693.25;4970101;28;20244;-81
2023/05/07 10:08:58;;;;;;;0.28;0.28;;;;;;;22.92;100.00;99694.84;4964982;28;20255;-81
2023/05/07 10:11:26;;;;;;;0.00;0.00;;;;;;;23.09;100.00;99663.41;4972285;28;20275;-86
2023/05/07 10:13:53;;;;;;;0.13;0.13;;;;;;;23.44;100.00;99639.91;4963955;28;20228;-83
2023/05/07 10:16:24;;;;;;;0.00;0.00;;;23.70;99.90;;;23.71;100.00;99614.06;4964516;28;20263;-83
2023/05/07 10:18:52;;;;;;;0.00;0.00;;;;;;;24.13;100.00;99626.88;4966022;28;20236;-83
2023/05/07 10:21:23;;;;;;;0.00;0.00;;;23.40;99.90;;;23.15;100.00;99528.22;4966308;28;20344;-83
2023/05/07 10:24:00;;;;;;;0.00;0.00;;;23.60;99.90;;;23.69;100.00;99625.91;4967237;28;20240;-83
2023/05/07 10:26:29;;;;;;;0.10;0.10;;;23.40;99.90;;;23.64;100.00;99493.06;4967752;28;20232;-81
2023/05/07 10:29:49;;;;;;;0.00;0.00;;;23.50;99.90;;;23.90;100.00;99527.47;4967204;28;20260;-83
2023/05/07 10:32:37;;;;;;;0.25;0.25;;;23.70;99.90;;;23.84;100.00;99508.94;4961353;28;20236;-80
2023/05/07 10:35:17;;;;;;;0.70;0.70;;;23.60;99.90;;;23.80;100.00;99429.06;4962660;28;20267;-83
2023/05/07 10:37:45;;;;;;;0.00;0.00;;;24.10;99.90;;;24.48;100.00;99476.13;4967516;28;20327;-83
2023/05/07 10:40:13;;;;;;;0.00;0.00;;;;;;;24.72;100.00;99511.59;4949723;28;20257;-82
2023/05/07 10:43:01;;;;;;;0.10;0.10;;;24.60;99.90;;;24.82;100.00;99474.88;4964339;28;20243;-83
2023/05/07 10:45:29;;;;;;;0.00;0.00;;;24.40;99.90;;;24.12;100.00;99309.09;4984549;28;20296;-82
2023/05/07 10:48:15;;;;;;;0.00;0.00;;;24.70;99.90;;;24.72;100.00;99454.81;4983390;28;20361;-82
2023/05/07 10:51:20;;;;;;;0.08;0.08;;;24.30;99.90;;;24.27;100.00;99401.84;4985227;28;20219;-82
2023/05/07 10:53:47;;;;;;;0.10;0.10;;;;;;;23.79;100.00;99333.72;4987362;28;20239;-81
2023/05/07 10:56:17;;;;;;;0.00;0.00;;;;;;;24.39;100.00;99401.06;4984727;28;20239;-83
2023/05/07 10:58:44;;;;;;;0.00;0.00;;;;;;;24.05;100.00;99283.47;4990774;28;20260;-83
2023/05/07 11:01:14;;;;;;;0.00;0.00;;;;;;;24.43;100.00;99402.59;4985505;28;20323;-80
2023/05/07 11:04:18;;;;;;;0.30;0.30;;;24.80;99.90;;;24.34;100.00;99348.28;4986432;28;20238;-80
2023/05/07 11:07:12;;;;;;;0.00;0.00;;;24.30;99.90;;;24.67;100.00;99356.00;4989534;28;20297;-80